Turkmenbashi Airport
UTAK : now visible

Airfield :











YOU CAN JOIN US ON...

 
LOGIN :

Register | Disclaimer

   EN    FR    IT 

 









Legend :    VFR   Marginal VFR   IFR   Intensive IFR   Very Intensive IFR
Visi :
Ceiling :
>= 8 km
>= 3000ft
5 to 8 km
1000 to 3000 ft
1500m to 5 km
500 to 1000 ft
800 to 1500m
200 to 500 ft
< 800m
< 200 ft
Symbols :   Thunderstorms  Fog  Heavy snow  Heavy precipitations  Wind > 20 kt






- Airport Elevation : 279 ft
- IATA code : KRW


UTAK - Turkmenbashi

CURRENT METAR :
  • 260000Z 35010KT 9999 FEW016 OVC100 07/02 Q1019 R34L/CLRD70 NOSIG

EXPIRED METARs :
  • 252300Z 35012KT 9999 FEW016 OVC100 07/02 Q1018 R34L/CLRD70 NOSIG
  • 252200Z 35012KT CAVOK 08/02 Q1016 R34L/CLRD70 NOSIG

TAF TAF UTAK
Valid from the 26 at 00:00 until the 27 at 00:00 UTC


252230Z 2600/2624 30018G28KT 3000 BR BKN015 SCT026CB OVC100
TEMPO 2600/2606 1000 SHRA BR BKN002
BECMG 2606/2607 34014G24KT 6000 BKN020 BKN100



MET'MAP, your aeronautical weather chart ! - Copyright ORBIFLY December 2007 - Disclaimer

ORBIFLY MET'MAP TEAM :

Programming & Development : Alexandra Zaïnal
Concept & original design : Baudouin d'Aumeries
Assistance for programming : Marc-Olivier Méhu
Technical & hardware support : Manuel Goepfert

Contact : metmap@orbifly.com




SOURCES & CREDITS :

   NOAA       Earth
Advisory